Sun River, MT (59483)

6:55 AM MDT on July 25, 2016 (GMT -0600)
MREDI Merja Station | | Change Station

Elev 3665 ft 47.46 °N, 111.71 °W | Updated 56 minutes ago

Clear
Clear
53.1 °F
Feels Like 53.1 °F
N
1.0
Wind Variable Wind from NNW
Gusts 3.0 mph

Today
High -- | Low -- °F
--% Chance of Precip.
Yesterday
High -- | Low -- °F
Precip. -- in
Pressure 30.00 in
Visibility 10.0 miles
Clouds Clear
Dew Point 40 °F
Humidity 64%
Rainfall 0.00 in
Snow Depth Not available.
5:56 AM 9:09 PM
Waning Gibbous, 66% visible
METAR KGTF 251153Z 19003KT 10SM CLR 10/06 A3008 RMK AO2 SLP159 T01000056 10178 20100 52008
Pressure 30.00 in
Visibility 10.0 miles
Clouds Clear
Dew Point 40 °F
Humidity 64%
Rainfall 0.00 in
Snow Depth Not available.
5:56 AM 9:09 PM
Waning Gibbous, 66% visible
METAR KGTF 251153Z 19003KT 10SM CLR 10/06 A3008 RMK AO2 SLP159 T01000056 10178 20100 52008

10-Day Weather Forecast

Almanac

Astronomy

Jul. 25, 2016 Rise Set
Actual Time
Civil Twilight
Nautical Twilight
Astronomical Twilight
Moon
Length of Visible Light
Length of Day
Tomorrow will be .
, % of the Moon is Illuminated

Today's Extremes

State Highs State Lows

Community

WunderPhotos

Upload Photos

1,927,296 photos uploaded!

WunderBlog® & News

Nearby

Air Quality

  Air Quality AQ Index Pollutant
Not available.

Snow Depth

Station Depth Elevation

Earthquake Activity

City Distance Mag. Time & Date
Minimum magnitude displayed is 2.5.

Coastal Water Temperatures

Place Temperature

Stations

Nearby Weather Stations

Station Location Temp. Windchill Dew Point Humidity Wind Precip. Elev Updated Type
                   

Watches & Warnings

There are currently no watches in effect.